Time;durP1;ratioP1;P1;durP2;ratioP2;P2;SDS_P1;SDS_P2;PMS_P1;PMS_P2;Temp;Humidity;BMP_temperature;BMP_pressure;BME280_temperature;BME280_humidity;BME280_pressure;Samples;Min_cycle;Max_cycle;Signal;HPM_P1;HPM_P2
2022/01/26 00:00:57;;;;;;;50.05;23.75;;;-2.80;59.20;;;;;;5021276;28;20382;-73
2022/01/26 00:08:57;;;;;;;69.28;28.23;;;-2.80;59.10;;;;;;5024530;28;20042;-70
2022/01/26 00:11:24;;;;;;;60.28;25.38;;;-2.90;59.10;;;;;;5032009;28;20121;-70
2022/01/26 00:13:51;;;;;;;43.35;19.50;;;-2.90;58.80;;;;;;5023498;28;20034;-72
2022/01/26 00:16:26;;;;;;;48.75;21.13;;;-3.00;59.10;;;;;;5013894;28;20130;-70
2022/01/26 00:18:55;;;;;;;58.20;24.70;;;-3.00;59.20;;;;;;5014017;28;20046;-72
2022/01/26 00:24:26;;;;;;;42.15;20.40;;;-3.00;59.20;;;;;;5026701;28;20076;-72
2022/01/26 00:29:48;;;;;;;49.22;22.92;;;-3.10;59.30;;;;;;5030917;28;20038;-70
2022/01/26 00:40:39;;;;;;;47.55;21.38;;;-3.10;59.20;;;;;;5022766;28;20080;-70
2022/01/26 00:43:19;;;;;;;40.47;18.58;;;-3.10;59.40;;;;;;5013190;28;20175;-72
2022/01/26 00:45:49;;;;;;;35.63;15.82;;;-3.10;59.10;;;;;;5013479;28;20038;-72
2022/01/26 00:48:20;;;;;;;33.35;14.60;;;-3.30;58.60;;;;;;5014674;28;20390;-70
2022/01/26 00:50:50;;;;;;;28.40;14.07;;;-3.40;59.30;;;;;;5027136;28;20497;-70
2022/01/26 00:53:20;;;;;;;34.58;15.55;;;-3.50;59.20;;;;;;5016876;28;20049;-70
2022/01/26 00:55:46;;;;;;;37.65;16.50;;;-3.40;59.20;;;;;;5026482;28;20037;-70
2022/01/26 00:58:12;;;;;;;43.15;17.75;;;-3.40;59.20;;;;;;5024105;28;20029;-72
2022/01/26 01:00:38;;;;;;;;;;;-3.40;59.10;;;;;;5030190;28;20041;-70
2022/01/26 01:03:05;;;;;;;56.50;21.48;;;-3.40;59.00;;;;;;5029339;28;20340;-70
2022/01/26 01:05:38;;;;;;;;;;;-3.40;58.50;;;;;;5001468;28;20475;-72
2022/01/26 01:08:09;;;;;;;51.88;18.83;;;-3.50;58.50;;;;;;5013989;28;19928;-72
2022/01/26 01:10:37;;;;;;;39.50;17.52;;;-3.50;59.00;;;;;;5012847;28;20510;-71
2022/01/26 01:13:03;;;;;;;41.70;19.75;;;-3.50;59.00;;;;;;5044202;28;20490;-72
2022/01/26 01:15:30;;;;;;;41.78;17.70;;;-3.40;59.20;;;;;;5015376;28;20390;-72
2022/01/26 01:18:09;;;;;;;38.97;15.75;;;-3.50;59.20;;;;;;5024406;28;20065;-70
2022/01/26 01:23:45;;;;;;;51.28;19.08;;;-3.40;59.20;;;;;;5012951;28;20034;-71
2022/01/26 01:34:07;;;;;;;48.30;22.05;;;-3.50;59.40;;;;;;5020628;28;20045;-70
2022/01/26 01:36:36;;;;;;;49.88;22.90;;;-3.60;59.20;;;;;;5027925;28;20073;-70
2022/01/26 01:39:04;;;;;;;49.45;21.70;;;-3.60;59.30;;;;;;5021894;28;20545;-72
2022/01/26 01:41:30;;;;;;;47.03;18.83;;;-3.60;59.30;;;;;;5012240;28;20129;-71
2022/01/26 01:43:56;;;;;;;40.42;17.85;;;-3.50;59.50;;;;;;5011929;28;20030;-70
2022/01/26 01:46:22;;;;;;;39.90;16.75;;;-3.50;59.40;;;;;;5028125;28;20542;-71
2022/01/26 01:48:48;;;;;;;33.28;16.35;;;-3.50;59.40;;;;;;5029693;28;20041;-72
2022/01/26 01:51:16;;;;;;;35.38;16.40;;;-3.60;59.40;;;;;;5029834;28;20030;-70
2022/01/26 01:53:44;;;;;;;32.53;16.38;;;-3.60;59.50;;;;;;5021297;28;20038;-72
2022/01/26 01:56:15;;;;;;;36.90;14.77;;;-3.60;59.60;;;;;;5003339;28;20560;-71
2022/01/26 01:58:42;;;;;;;29.63;12.05;;;-3.70;59.70;;;;;;5025595;28;20447;-71
2022/01/26 02:01:08;;;;;;;29.58;13.18;;;-3.60;59.70;;;;;;5001536;28;20038;-72
2022/01/26 02:03:35;;;;;;;31.10;12.75;;;-3.70;59.80;;;;;;5011595;28;20499;-70
2022/01/26 02:06:02;;;;;;;36.60;12.98;;;-3.70;59.20;;;;;;5015992;28;20849;-70
2022/01/26 02:08:28;;;;;;;29.60;11.98;;;-3.70;59.30;;;;;;5023148;28;20045;-70
2022/01/26 02:10:54;;;;;;;27.67;11.68;;;-3.70;59.80;;;;;;5020299;28;20053;-70
2022/01/26 02:13:25;;;;;;;28.45;12.65;;;-3.70;59.80;;;;;;5011670;28;20038;-72
2022/01/26 02:16:02;;;;;;;31.98;12.75;;;-3.70;59.90;;;;;;5012587;28;20042;-72
2022/01/26 02:54:57;;;;;;;34.63;16.00;;;-3.10;58.60;;;;;;5023878;28;20046;-72
2022/01/26 03:00:17;;;;;;;37.17;15.85;;;-3.00;58.40;;;;;;5015760;28;20141;-70
2022/01/26 03:05:35;;;;;;;41.58;16.45;;;-2.90;58.40;;;;;;5026504;28;20124;-71
2022/01/26 03:08:05;;;;;;;42.13;19.00;;;-2.80;58.50;;;;;;5010968;28;20053;-70
2022/01/26 03:13:04;;;;;;;;;;;-2.90;59.40;;;;;;5027202;28;20042;-70
2022/01/26 03:21:00;;;;;;;47.10;21.08;;;-2.60;58.20;;;;;;5015397;28;20026;-71
2022/01/26 03:34:12;;;;;;;50.15;22.25;;;-2.50;58.50;;;;;;5015767;28;20175;-70
2022/01/26 03:36:52;;;;;;;43.03;19.90;;;-2.50;58.70;;;;;;5030447;28;20046;-70
2022/01/26 03:39:20;;;;;;;43.60;20.10;;;-2.40;58.60;;;;;;5014385;28;20521;-72
2022/01/26 03:42:03;;;;;;;41.63;21.08;;;-2.30;58.50;;;;;;5025095;28;20061;-71
2022/01/26 03:44:29;;;;;;;46.63;21.27;;;-2.30;58.50;;;;;;5013622;28;20184;-72
2022/01/26 03:46:55;;;;;;;;;;;-2.20;59.30;;;;;;5014632;28;20041;-72
2022/01/26 03:49:21;;;;;;;44.88;20.35;;;-2.20;58.50;;;;;;5031596;28;19921;-70
2022/01/26 03:51:47;;;;;;;50.50;22.05;;;-2.20;58.10;;;;;;5024609;28;20073;-70
2022/01/26 03:54:15;;;;;;;47.55;21.58;;;-2.20;58.70;;;;;;5031565;28;20029;-70
2022/01/26 03:56:41;;;;;;;50.65;21.88;;;-2.10;58.80;;;;;;5030910;28;20284;-70
2022/01/26 03:59:07;;;;;;;54.20;22.42;;;-2.10;58.70;;;;;;5015159;28;20042;-69
2022/01/26 04:01:34;;;;;;;78.97;34.28;;;-2.00;58.70;;;;;;5027583;28;20087;-71
2022/01/26 04:04:01;;;;;;;73.57;30.80;;;-2.00;58.70;;;;;;5014369;28;20058;-72
2022/01/26 04:06:29;;;;;;;68.75;25.13;;;-2.10;58.70;;;;;;5013910;28;20038;-71
2022/01/26 04:08:55;;;;;;;73.57;30.40;;;-2.00;58.70;;;;;;5018548;28;20031;-71
2022/01/26 04:11:36;;;;;;;71.88;28.60;;;-1.90;58.70;;;;;;5014731;28;20518;-70
2022/01/26 04:14:07;;;;;;;53.67;23.77;;;-1.90;58.60;;;;;;5001043;28;20073;-71
2022/01/26 04:16:34;;;;;;;59.95;25.75;;;-1.80;58.40;;;;;;5029866;28;20068;-71
2022/01/26 04:19:01;;;;;;;56.17;25.05;;;-1.90;58.50;;;;;;5030043;28;20091;-72
2022/01/26 04:26:29;;;;;;;66.53;25.55;;;-1.80;58.80;;;;;;5031276;28;20041;-69
2022/01/26 04:29:04;;;;;;;50.95;23.48;;;-1.80;58.20;;;;;;5029997;28;20113;-70
2022/01/26 04:31:31;;;;;;;57.45;24.90;;;-1.70;58.90;;;;;;5012372;28;20117;-70
2022/01/26 04:33:57;;;;;;;56.22;26.83;;;-1.70;58.80;;;;;;5028654;28;20391;-71
2022/01/26 04:36:33;;;;;;;76.18;30.50;;;-1.60;58.80;;;;;;5020762;28;20161;-71
2022/01/26 04:39:05;;;;;;;73.93;27.65;;;-1.60;58.70;;;;;;5031682;28;20390;-72
2022/01/26 04:44:22;;;;;;;90.53;33.67;;;-1.60;58.60;;;;;;5016556;28;20041;-71
2022/01/26 04:46:50;;;;;;;67.57;27.90;;;-1.60;58.70;;;;;;5022726;28;20037;-70
2022/01/26 04:49:16;;;;;;;54.50;25.48;;;-1.60;58.70;;;;;;5021504;28;20436;-71
2022/01/26 04:51:42;;;;;;;;;;;-1.60;58.80;;;;;;5010968;28;20060;-72
2022/01/26 04:54:09;;;;;;;61.03;25.98;;;-1.60;58.80;;;;;;5021722;28;19963;-70
2022/01/26 04:56:35;;;;;;;69.47;28.33;;;-1.60;58.20;;;;;;5023353;28;20530;-72
2022/01/26 04:59:01;;;;;;;106.63;42.05;;;-1.60;58.20;;;;;;5022542;28;20048;-72
2022/01/26 05:01:27;;;;;;;;;;;-1.60;58.90;;;;;;5023557;28;20092;-69
2022/01/26 05:03:53;;;;;;;48.65;22.45;;;-1.60;59.00;;;;;;5023130;28;20336;-70
2022/01/26 05:06:19;;;;;;;48.80;24.33;;;-1.60;58.90;;;;;;5037897;28;20274;-72
2022/01/26 05:08:46;;;;;;;68.78;28.15;;;-1.50;58.90;;;;;;5018381;28;20037;-70
2022/01/26 05:11:17;;;;;;;60.03;24.90;;;-1.50;58.90;;;;;;5022664;28;20046;-72
2022/01/26 05:13:43;;;;;;;78.97;32.55;;;-1.50;58.90;;;;;;5038427;28;20060;-72
2022/01/26 05:16:10;;;;;;;75.68;31.42;;;-1.40;58.90;;;;;;5022434;28;20030;-70
2022/01/26 05:18:37;;;;;;;63.35;29.77;;;-1.40;58.90;;;;;;5016340;28;20062;-70
2022/01/26 05:21:03;;;;;;;62.33;25.33;;;-1.40;58.90;;;;;;5018715;28;20021;-70
2022/01/26 05:23:29;;;;;;;72.15;30.08;;;-1.40;58.80;;;;;;5037171;28;20034;-70
2022/01/26 05:25:55;;;;;;;69.07;29.20;;;-1.40;59.00;;;;;;5012649;28;20510;-71
2022/01/26 05:28:21;;;;;;;58.67;25.40;;;-1.40;59.10;;;;;;5020204;28;20029;-72
2022/01/26 05:30:48;;;;;;;52.50;25.40;;;-1.40;59.20;;;;;;5036725;28;20054;-70
2022/01/26 05:33:14;;;;;;;53.80;24.75;;;-1.40;59.20;;;;;;5014001;28;20038;-70
2022/01/26 05:35:42;;;;;;;47.88;21.90;;;-1.30;59.20;;;;;;5014533;28;20061;-70
2022/01/26 05:38:08;;;;;;;48.83;22.83;;;-1.30;59.30;;;;;;5019532;28;20046;-70
2022/01/26 05:40:35;;;;;;;44.10;20.98;;;-1.30;59.10;;;;;;5021837;28;20368;-71
2022/01/26 05:43:01;;;;;;;;;;;-1.40;59.20;;;;;;5026269;28;20465;-71
2022/01/26 05:48:13;;;;;;;54.28;23.88;;;-1.40;59.20;;;;;;5013369;28;20048;-72
2022/01/26 05:50:48;;;;;;;45.47;21.48;;;-1.40;59.30;;;;;;5014120;28;20558;-72
2022/01/26 05:53:17;;;;;;;54.97;24.43;;;-1.30;59.30;;;;;;5019708;28;20058;-70
2022/01/26 05:55:43;;;;;;;57.08;25.70;;;-1.40;58.70;;;;;;5018432;28;20053;-71
2022/01/26 05:58:09;;;;;;;;;;;-1.30;58.90;;;;;;5015863;28;20391;-71
2022/01/26 06:00:35;;;;;;;60.00;26.70;;;-1.30;59.30;;;;;;5025799;28;19948;-70
2022/01/26 06:03:01;;;;;;;51.85;23.55;;;-1.30;59.30;;;;;;5016133;28;20396;-71
2022/01/26 06:05:27;;;;;;;40.03;19.40;;;-1.40;59.30;;;;;;5013476;28;20030;-70
2022/01/26 06:07:54;;;;;;;45.60;22.15;;;-1.40;59.50;;;;;;5026154;28;20154;-70
2022/01/26 06:10:20;;;;;;;59.13;24.67;;;-1.40;59.50;;;;;;5016301;28;20041;-71
2022/01/26 06:12:46;;;;;;;52.80;21.48;;;-1.40;59.50;;;;;;4995494;28;20038;-72
2022/01/26 06:15:12;;;;;;;58.30;26.20;;;-1.30;59.60;;;;;;5025696;28;20049;-70
2022/01/26 06:17:38;;;;;;;;;;;-1.30;59.60;;;;;;5021642;28;20042;-72
2022/01/26 06:20:05;;;;;;;68.85;28.02;;;-1.30;59.30;;;;;;5020972;28;20299;-70
2022/01/26 06:22:33;;;;;;;87.05;33.92;;;-1.20;59.20;;;;;;5012473;28;20038;-70
2022/01/26 06:25:05;;;;;;;89.03;33.03;;;-1.20;59.30;;;;;;5025112;28;20065;-71
2022/01/26 06:27:32;;;;;;;48.60;22.77;;;-1.20;59.20;;;;;;5028911;28;20103;-72
2022/01/26 06:29:59;;;;;;;48.92;22.40;;;-1.10;59.30;;;;;;5014766;28;20044;-70
2022/01/26 06:32:25;;;;;;;42.03;21.23;;;-1.10;59.50;;;;;;5012236;28;20037;-72
2022/01/26 06:34:51;;;;;;;;;;;-1.10;59.30;;;;;;5040878;28;20441;-70
2022/01/26 06:37:18;;;;;;;67.20;31.17;;;-1.10;58.70;;;;;;5028367;28;19928;-70
2022/01/26 06:39:44;;;;;;;111.10;45.15;;;-1.10;59.20;;;;;;5014137;28;20133;-71
2022/01/26 06:42:14;;;;;;;59.97;30.50;;;-1.10;59.60;;;;;;5012729;28;20034;-72
2022/01/26 06:47:49;;;;;;;52.42;26.92;;;-1.10;59.60;;;;;;4991916;28;20495;-70
2022/01/26 06:50:18;;;;;;;47.33;21.92;;;-1.10;59.70;;;;;;4977753;28;20050;-71
2022/01/26 06:52:46;;;;;;;54.78;25.92;;;-1.10;59.70;;;;;;5008013;28;20391;-72
2022/01/26 06:55:14;;;;;;;55.78;26.27;;;-1.00;59.70;;;;;;5004149;28;20045;-72
2022/01/26 06:57:40;;;;;;;49.50;22.92;;;-1.00;59.60;;;;;;4992084;28;20042;-70
2022/01/26 07:00:09;;;;;;;42.65;22.30;;;-0.90;59.30;;;;;;5004331;28;20038;-71
2022/01/26 07:02:36;;;;;;;52.17;25.08;;;-0.90;59.60;;;;;;4974143;28;20069;-70
2022/01/26 07:05:04;;;;;;;48.83;24.45;;;-0.90;59.70;;;;;;5004034;28;20112;-72
2022/01/26 07:07:30;;;;;;;50.40;25.75;;;-0.90;59.50;;;;;;4992418;28;20034;-70
2022/01/26 07:09:56;;;;;;;51.53;24.90;;;-0.90;59.70;;;;;;5005167;28;20043;-70
2022/01/26 07:12:22;;;;;;;51.47;22.20;;;-0.80;59.60;;;;;;4991531;28;20499;-72
2022/01/26 07:23:03;;;;;;;54.13;24.83;;;-0.60;58.90;;;;;;4996949;28;20556;-70
2022/01/26 07:25:31;;;;;;;55.78;24.55;;;-0.60;59.30;;;;;;4998885;28;20046;-72
2022/01/26 07:27:58;;;;;;;66.05;31.10;;;-0.60;58.90;;;;;;4997235;28;20050;-72
2022/01/26 07:30:24;;;;;;;50.47;26.77;;;-0.50;59.00;;;;;;4974033;28;20568;-72
2022/01/26 07:32:51;;;;;;;52.22;23.70;;;-0.50;59.50;;;;;;4993366;28;20042;-70
2022/01/26 07:35:17;;;;;;;68.00;31.30;;;-0.50;59.70;;;;;;4992543;28;20035;-70
2022/01/26 07:37:44;;;;;;;60.10;26.90;;;-0.30;59.70;;;;;;4992428;28;20039;-71
2022/01/26 07:40:11;;;;;;;51.92;23.85;;;-0.30;59.50;;;;;;4999090;28;20043;-72
2022/01/26 07:42:38;;;;;;;63.83;26.30;;;-0.30;59.20;;;;;;5001790;28;20045;-70
2022/01/26 07:45:08;;;;;;;51.53;25.67;;;-0.20;58.90;;;;;;4997650;28;20069;-70
2022/01/26 07:47:36;;;;;;;63.47;28.70;;;-0.10;59.40;;;;;;4999379;28;20675;-72
2022/01/26 07:50:08;;;;;;;75.45;35.78;;;-0.10;59.00;;;;;;5005917;28;20058;-70
2022/01/26 07:52:38;;;;;;;84.57;38.70;;;0.00;58.90;;;;;;5005240;28;20137;-72
2022/01/26 07:55:08;;;;;;;101.45;44.75;;;0.10;58.40;;;;;;4994270;28;20046;-72
2022/01/26 07:57:34;;;;;;;75.30;35.00;;;0.10;58.80;;;;;;4993846;28;20475;-71
2022/01/26 08:00:01;;;;;;;78.30;36.78;;;0.20;58.60;;;;;;4973519;28;20038;-72
2022/01/26 08:02:26;;;;;;;;;;;0.30;58.80;;;;;;5006500;28;20034;-70
2022/01/26 08:04:53;;;;;;;67.32;29.92;;;0.30;58.70;;;;;;5002111;28;19951;-70
2022/01/26 08:07:19;;;;;;;78.45;35.88;;;0.30;58.80;;;;;;5011264;28;20034;-72
2022/01/26 08:09:45;;;;;;;86.85;38.72;;;0.30;58.80;;;;;;5004349;28;20124;-70
2022/01/26 08:12:14;;;;;;;72.45;35.22;;;0.30;58.90;;;;;;4997697;28;20050;-70
2022/01/26 08:14:42;;;;;;;74.90;38.47;;;0.40;58.70;;;;;;5007201;28;20030;-72
2022/01/26 08:17:09;;;;;;;75.75;32.53;;;0.40;58.60;;;;;;5011678;28;20502;-70
2022/01/26 08:19:36;;;;;;;67.05;32.38;;;0.50;58.80;;;;;;4995102;28;20614;-72
2022/01/26 08:22:03;;;;;;;62.35;32.30;;;0.50;58.60;;;;;;5007151;28;20111;-72
2022/01/26 08:24:31;;;;;;;53.35;26.40;;;0.50;58.70;;;;;;5010718;28;20045;-72
2022/01/26 08:27:09;;;;;;;56.63;25.77;;;0.70;58.60;;;;;;4997628;28;20034;-72
2022/01/26 08:29:45;;;;;;;61.05;28.05;;;0.70;58.30;;;;;;4994929;28;20042;-70
2022/01/26 08:32:11;;;;;;;68.37;32.07;;;0.80;58.40;;;;;;4994205;28;20038;-70
2022/01/26 08:34:38;;;;;;;66.80;33.28;;;0.90;57.70;;;;;;5007697;28;20451;-70
2022/01/26 08:37:04;;;;;;;81.57;36.85;;;1.00;57.50;;;;;;4993564;28;20042;-70
2022/01/26 08:39:32;;;;;;;81.50;37.42;;;1.10;57.40;;;;;;4993410;28;20038;-70
2022/01/26 08:42:17;;;;;;;103.53;47.40;;;1.20;57.80;;;;;;5010673;28;20034;-70
2022/01/26 08:44:44;;;;;;;111.50;50.80;;;1.30;57.80;;;;;;5004940;28;20041;-71
2022/01/26 08:47:10;;;;;;;145.10;62.05;;;1.40;57.80;;;;;;4998866;28;20058;-72
2022/01/26 08:49:36;;;;;;;78.10;38.38;;;1.50;57.70;;;;;;5010578;28;20387;-72
2022/01/26 08:52:02;;;;;;;64.10;31.40;;;1.50;57.60;;;;;;5011876;28;20366;-70
2022/01/26 08:54:29;;;;;;;63.75;30.50;;;1.60;57.00;;;;;;5008744;28;20046;-72
2022/01/26 08:56:55;;;;;;;72.57;32.05;;;1.60;57.70;;;;;;4993149;28;20422;-70
2022/01/26 08:59:24;;;;;;;68.55;32.63;;;1.60;57.50;;;;;;5002621;28;20116;-72
2022/01/26 09:01:50;;;;;;;82.43;36.28;;;1.60;57.60;;;;;;4992831;28;20380;-72
2022/01/26 09:04:17;;;;;;;60.53;27.63;;;1.60;58.60;;;;;;4992146;28;20039;-70
2022/01/26 09:06:58;;;;;;;61.20;26.17;;;1.70;57.60;;;;;;4985700;28;20368;-70
2022/01/26 09:09:29;;;;;;;46.35;22.65;;;1.80;57.70;;;;;;4994660;28;20174;-70
2022/01/26 09:11:58;;;;;;;86.93;34.47;;;1.80;57.50;;;;;;4992395;28;20372;-72
2022/01/26 09:14:27;;;;;;;74.03;30.00;;;1.80;56.90;;;;;;4995576;28;20080;-70
2022/01/26 09:16:55;;;;;;;66.65;34.55;;;1.90;57.00;;;;;;5006031;28;20352;-70
2022/01/26 09:19:28;;;;;;;61.65;29.10;;;2.00;57.40;;;;;;4985334;28;20491;-72
2022/01/26 09:22:16;;;;;;;59.30;28.00;;;2.10;57.10;;;;;;4998699;28;20077;-72
2022/01/26 09:24:43;;;;;;;57.13;27.42;;;2.20;56.90;;;;;;5010327;28;20069;-70
2022/01/26 09:27:14;;;;;;;59.90;26.85;;;2.30;57.00;;;;;;4984091;28;20030;-71
2022/01/26 09:29:42;;;;;;;59.30;28.23;;;2.40;57.10;;;;;;5003126;28;20030;-70
2022/01/26 09:32:09;;;;;;;50.70;25.63;;;2.40;57.00;;;;;;5000122;28;20038;-72
2022/01/26 09:34:37;;;;;;;55.33;26.63;;;2.40;56.80;;;;;;5002387;28;20034;-72
2022/01/26 09:37:05;;;;;;;51.78;25.25;;;2.60;56.40;;;;;;5003047;28;20030;-70
2022/01/26 09:39:32;;;;;;;51.22;25.90;;;2.60;56.80;;;;;;5001020;28;20388;-70
2022/01/26 09:41:59;;;;;;;52.25;26.17;;;2.70;56.70;;;;;;4992886;28;20076;-72
2022/01/26 09:44:25;;;;;;;64.05;33.42;;;2.70;56.60;;;;;;4977365;28;20387;-70
2022/01/26 09:46:52;;;;;;;;;;;2.70;56.20;;;;;;5005793;28;20469;-70
2022/01/26 09:49:19;;;;;;;72.40;41.50;;;2.90;56.60;;;;;;5006285;28;19925;-70
2022/01/26 09:51:49;;;;;;;68.60;34.47;;;3.00;56.30;;;;;;4999302;28;20124;-71
2022/01/26 09:54:18;;;;;;;59.45;32.28;;;3.10;56.00;;;;;;5008370;28;20480;-72
2022/01/26 09:56:50;;;;;;;58.00;29.92;;;3.10;56.00;;;;;;5011834;28;20142;-70
2022/01/26 09:59:18;;;;;;;59.92;34.17;;;3.20;55.90;;;;;;4992657;28;20076;-73
2022/01/26 10:01:46;;;;;;;61.88;32.05;;;3.20;55.80;;;;;;5004708;28;20038;-70
2022/01/26 10:04:51;;;;;;;64.97;35.42;;;3.30;56.00;;;;;;4979830;28;20061;-70
2022/01/26 10:18:21;;;;;;;46.78;25.30;;;3.60;55.10;;;;;;5009320;28;20034;-73
2022/01/26 10:21:08;;;;;;;50.70;25.48;;;3.70;55.50;;;;;;5006821;28;20080;-70
2022/01/26 10:23:57;;;;;;;54.15;26.90;;;3.70;55.40;;;;;;5003120;28;20048;-71
2022/01/26 10:26:23;;;;;;;55.90;26.23;;;3.70;55.40;;;;;;4995578;28;20050;-70
2022/01/26 10:29:08;;;;;;;48.38;24.50;;;3.90;55.40;;;;;;4991443;28;20553;-71
2022/01/26 10:31:54;;;;;;;45.97;24.38;;;3.90;55.30;;;;;;4992797;28;20049;-73
2022/01/26 10:34:23;;;;;;;45.78;22.17;;;4.00;55.40;;;;;;4990447;28;20049;-72
2022/01/26 10:37:00;;;;;;;45.25;22.60;;;4.10;55.00;;;;;;4989827;28;20503;-73
2022/01/26 10:39:43;;;;;;;48.65;22.83;;;4.20;54.70;;;;;;4992285;28;20038;-70
2022/01/26 10:42:18;;;;;;;46.47;23.65;;;4.20;54.60;;;;;;5009968;28;20069;-73
2022/01/26 10:47:36;;;;;;;47.97;25.42;;;4.20;54.90;;;;;;4992570;28;20437;-70
2022/01/26 10:53:33;;;;;;;45.63;23.25;;;4.40;54.90;;;;;;5009422;28;20065;-73
2022/01/26 10:55:59;;;;;;;38.08;19.67;;;4.40;54.90;;;;;;5018307;28;20411;-70
2022/01/26 10:58:25;;;;;;;42.25;21.65;;;4.50;55.00;;;;;;5008063;28;20034;-72
2022/01/26 11:00:54;;;;;;;42.08;20.67;;;4.50;54.40;;;;;;5008229;28;20049;-70
2022/01/26 11:03:21;;;;;;;40.85;22.38;;;4.60;54.90;;;;;;5007839;28;20050;-73
2022/01/26 11:05:47;;;;;;;42.88;22.00;;;4.70;54.60;;;;;;5008894;28;20034;-73
2022/01/26 11:08:14;;;;;;;41.33;20.67;;;4.80;54.80;;;;;;5008513;28;20569;-73
2022/01/26 11:10:41;;;;;;;41.45;21.58;;;4.80;54.40;;;;;;4991599;28;20046;-72
2022/01/26 11:13:08;;;;;;;49.22;24.42;;;5.00;54.40;;;;;;4983013;28;20499;-70
2022/01/26 11:15:34;;;;;;;;;;;5.00;54.40;;;;;;5008650;28;20053;-71
2022/01/26 11:18:28;;;;;;;48.45;22.27;;;5.10;54.30;;;;;;4994696;28;19964;-72
2022/01/26 11:20:55;;;;;;;44.65;24.10;;;5.10;54.30;;;;;;4991103;28;20065;-70
2022/01/26 11:23:33;;;;;;;;;;;5.10;54.30;;;;;;5010186;28;20033;-72
2022/01/26 11:26:00;;;;;;;46.42;23.38;;;5.10;54.40;;;;;;4999066;28;20018;-71
2022/01/26 11:28:27;;;;;;;;;;;5.20;53.50;;;;;;5008568;28;20052;-72
2022/01/26 11:31:02;;;;;;;;;;;5.20;54.20;;;;;;4992093;28;19930;-70
2022/01/26 11:33:30;;;;;;;40.83;21.80;;;5.30;54.10;;;;;;4993681;28;19943;-70
2022/01/26 11:35:58;;;;;;;41.45;23.20;;;5.30;54.10;;;;;;5010389;28;20030;-72
2022/01/26 11:42:15;;;;;;;41.80;21.95;;;5.50;53.70;;;;;;4991758;28;20034;-70
2022/01/26 11:45:23;;;;;;;42.63;21.63;;;5.60;53.40;;;;;;5012090;28;20117;-71
2022/01/26 11:48:26;;;;;;;41.60;20.73;;;5.60;53.30;;;;;;4997091;28;20553;-72
2022/01/26 11:51:11;;;;;;;45.80;23.48;;;5.70;53.50;;;;;;4996187;28;20084;-72
2022/01/26 11:53:37;;;;;;;45.05;24.27;;;5.80;53.20;;;;;;4996506;28;20112;-72
2022/01/26 11:56:23;;;;;;;47.05;25.58;;;5.70;53.50;;;;;;4999965;28;20039;-71
2022/01/26 11:58:53;;;;;;;59.03;28.45;;;5.70;53.70;;;;;;4999691;28;20034;-70
2022/01/26 12:01:29;;;;;;;48.92;25.20;;;5.80;53.40;;;;;;4999823;28;20049;-70
2022/01/26 12:04:17;;;;;;;43.25;23.40;;;5.90;53.30;;;;;;5009930;28;20446;-71
2022/01/26 12:06:50;;;;;;;59.20;29.83;;;6.10;52.90;;;;;;4996255;28;20042;-72
2022/01/26 12:09:18;;;;;;;42.65;22.15;;;6.10;52.80;;;;;;5009552;28;20053;-70
2022/01/26 12:11:52;;;;;;;42.17;23.23;;;6.10;52.60;;;;;;4994267;28;20039;-71
2022/01/26 12:14:21;;;;;;;45.95;23.13;;;6.10;52.30;;;;;;5010031;28;20372;-72
2022/01/26 12:16:51;;;;;;;44.58;22.55;;;6.30;52.60;;;;;;4994380;28;20045;-72
2022/01/26 12:19:50;;;;;;;43.30;23.25;;;6.30;52.30;;;;;;5009164;28;20133;-70
2022/01/26 12:41:10;;;;;;;45.17;23.45;;;6.90;51.70;;;;;;5011393;28;20064;-70
2022/01/26 12:45:11;;;;;;;44.47;21.90;;;7.00;51.30;;;;;;4994137;28;20042;-72
2022/01/26 12:47:37;;;;;;;48.33;25.33;;;7.20;51.00;;;;;;4995415;28;20049;-72
2022/01/26 12:50:04;;;;;;;45.97;22.17;;;7.10;51.20;;;;;;5006549;28;20061;-71
2022/01/26 12:52:30;;;;;;;86.75;38.67;;;7.20;50.70;;;;;;4997380;28;20054;-72
2022/01/26 12:54:56;;;;;;;115.60;45.60;;;7.50;50.50;;;;;;4994688;28;20042;-71
2022/01/26 12:57:23;;;;;;;45.63;22.13;;;7.90;50.20;;;;;;5005467;28;20046;-70
2022/01/26 13:00:00;;;;;;;45.25;23.15;;;11.60;44.80;;;;;;5012617;28;20084;-70
2022/01/26 13:02:26;;;;;;;42.78;23.20;;;14.40;37.70;;;;;;5011692;28;20050;-71
2022/01/26 13:05:12;;;;;;;;;;;15.60;35.10;;;;;;5010501;28;20125;-71
2022/01/26 13:07:38;;;;;;;51.25;27.63;;;16.30;35.80;;;;;;5010575;28;19922;-71
2022/01/26 13:10:23;;;;;;;60.88;28.38;;;16.70;33.70;;;;;;5006884;28;20031;-72
2022/01/26 13:12:49;;;;;;;45.92;25.05;;;16.20;34.30;;;;;;5009379;28;20311;-71
2022/01/26 13:15:22;;;;;;;43.63;22.73;;;16.90;33.70;;;;;;4994353;28;20372;-71
2022/01/26 13:17:54;;;;;;;42.35;23.70;;;17.70;32.30;;;;;;5011839;28;20459;-71
2022/01/26 13:20:34;;;;;;;36.95;19.92;;;17.50;31.50;;;;;;5001887;28;20050;-71
2022/01/26 13:28:53;;;;;;;27.88;15.55;;;16.30;32.80;;;;;;5005327;28;20125;-73
2022/01/26 13:31:51;;;;;;;28.10;15.88;;;17.10;31.70;;;;;;5001711;28;20058;-73
2022/01/26 13:34:40;;;;;;;29.08;16.17;;;18.90;27.70;;;;;;4996686;28;20039;-73
2022/01/26 13:50:00;;;;;;;21.58;11.57;;;20.00;26.20;;;;;;4994622;28;20037;-72
2022/01/26 13:53:02;;;;;;;22.88;12.13;;;20.00;26.20;;;;;;5011113;28;20061;-73
2022/01/26 13:55:57;;;;;;;22.15;11.38;;;20.30;26.00;;;;;;4995612;28;20046;-71
2022/01/26 14:01:20;;;;;;;15.75;7.97;;;23.40;22.70;;;;;;4998473;28;20091;-71
2022/01/26 14:03:51;;;;;;;14.88;7.82;;;24.10;22.00;;;;;;5005516;28;20041;-74
2022/01/26 14:06:17;;;;;;;19.55;8.52;;;23.80;21.60;;;;;;4978865;28;20511;-71
2022/01/26 14:08:44;;;;;;;;;;;24.30;21.80;;;;;;5004311;28;20046;-71
2022/01/26 14:11:10;;;;;;;12.65;6.05;;;25.10;22.20;;;;;;5022227;28;19922;-74
2022/01/26 14:13:37;;;;;;;11.77;7.60;;;25.60;19.60;;;;;;5008796;28;20053;-73
2022/01/26 14:16:05;;;;;;;12.90;6.43;;;25.70;19.40;;;;;;5025373;28;20038;-73
2022/01/26 14:19:01;;;;;;;14.60;8.10;;;25.00;19.80;;;;;;5023953;28;20469;-73
2022/01/26 14:26:45;;;;;;;14.30;7.70;;;22.00;21.30;;;;;;4993024;28;20054;-72
2022/01/26 14:29:41;;;;;;;18.50;7.97;;;21.80;22.10;;;;;;4992769;28;20041;-73
2022/01/26 15:33:05;;;;;;;102.70;42.42;;;8.90;36.20;;;;;;4992499;28;20064;-73
2022/01/26 15:35:01;;;;;;;86.00;43.78;;;8.70;36.50;;;;;;4992753;28;20049;-72
2022/01/26 15:49:07;;;;;;;52.53;25.70;;;7.50;38.40;;;;;;5007095;28;20521;-71
2022/01/26 16:07:52;;;;;;;36.22;18.50;;;6.20;41.00;;;;;;5024765;28;20045;-71
2022/01/26 16:21:18;;;;;;;42.17;23.73;;;5.30;43.30;;;;;;5031283;28;20071;-72
2022/01/26 16:27:10;;;;;;;55.35;26.58;;;5.10;44.00;;;;;;5012568;28;20072;-72
2022/01/26 16:35:21;;;;;;;26.05;12.50;;;4.60;44.90;;;;;;5024255;28;20036;-70
2022/01/26 16:37:59;;;;;;;28.08;14.10;;;4.50;45.20;;;;;;5023053;28;20129;-70
2022/01/26 18:32:57;;;;;;;47.15;25.33;;;0.80;54.50;;;;;;5026584;28;20168;-70
2022/01/26 18:49:16;;;;;;;46.67;23.40;;;0.60;55.10;;;;;;5028950;28;20095;-71
2022/01/26 18:51:45;;;;;;;47.05;23.67;;;0.50;55.10;;;;;;5020019;28;20452;-70
2022/01/26 18:54:13;;;;;;;40.60;22.67;;;0.50;55.30;;;;;;5013293;28;20030;-72
2022/01/26 18:56:41;;;;;;;46.05;21.92;;;0.50;54.90;;;;;;4995306;28;20050;-71
2022/01/26 18:59:09;;;;;;;44.60;21.77;;;0.50;55.40;;;;;;5027494;28;20042;-72
2022/01/26 19:01:36;;;;;;;38.03;20.75;;;0.50;55.50;;;;;;5012391;28;20394;-71
2022/01/26 19:04:03;;;;;;;38.75;18.77;;;0.50;55.50;;;;;;5020884;28;20030;-71
2022/01/26 19:06:29;;;;;;;37.38;17.60;;;0.50;55.40;;;;;;5017687;28;20553;-71
2022/01/26 19:08:56;;;;;;;33.40;17.23;;;0.50;55.70;;;;;;5024080;28;20041;-70
2022/01/26 19:11:22;;;;;;;36.20;18.38;;;0.50;55.70;;;;;;5028893;28;20434;-71
2022/01/26 19:13:50;;;;;;;41.17;18.85;;;0.50;55.70;;;;;;5017258;28;20049;-70
2022/01/26 19:33:09;;;;;;;52.45;26.45;;;0.40;55.80;;;;;;5035917;28;20129;-71
2022/01/26 19:54:30;;;;;;;63.05;29.88;;;0.10;56.70;;;;;;5017094;28;20053;-70
2022/01/26 19:56:56;;;;;;;41.05;20.10;;;0.10;57.00;;;;;;5024320;28;20034;-71
2022/01/26 19:59:22;;;;;;;41.30;21.67;;;0.10;57.20;;;;;;5016316;28;20109;-70
2022/01/26 20:01:48;;;;;;;42.95;20.20;;;0.00;57.20;;;;;;5025377;28;20042;-70
2022/01/26 20:04:14;;;;;;;67.65;29.27;;;-0.10;57.50;;;;;;5015417;28;20030;-71
2022/01/26 20:06:42;;;;;;;51.15;26.48;;;-0.10;57.40;;;;;;4999057;28;20125;-70
2022/01/26 20:11:59;;;;;;;43.95;20.08;;;-0.10;57.60;;;;;;5022959;28;20525;-70
2022/01/26 20:14:32;;;;;;;46.38;21.55;;;-0.20;57.60;;;;;;5022451;28;20030;-70
2022/01/26 20:17:00;;;;;;;42.65;20.90;;;-0.20;57.20;;;;;;5022964;28;20046;-70
2022/01/26 20:19:28;;;;;;;41.88;18.95;;;-0.20;57.70;;;;;;5027131;28;20395;-71
2022/01/26 20:21:54;;;;;;;37.17;19.30;;;-0.30;57.90;;;;;;5022460;28;20034;-70
2022/01/26 20:24:21;;;;;;;40.10;18.67;;;-0.30;57.50;;;;;;5013896;28;20457;-71